STS Fryderyk Chopin — SPS2298 — position and weather

sailwx.info

Track history (hours):
 
Tides and Currents Weather Stations Pressure Air Temp Water Temp Dewpoint Dewpoint Depression Visibility Wind Speed Wind Dir Waves Ship Positions

STS Fryderyk Chopin (Poland)

Ship's website: http://www.fryderykchopin.pl/

Last reported at 2020-Sep-26 07:50 UTC. Time now 2020-Sep-26 09:06 UTC.
Position N 38°11' W 000°34'.

Length 44 m; draft 4 m.

Type: Sailing vessel. MMSI: 261000290.

Date/timePositionNaut miles runAvg speedWind from/ knotsBaromVisibWave heightAir tempDewpointWater temp
2020-Sep-26 07:50N 38°11' W 000°34'0 0.0
2020-Sep-26 07:20N 38°11' W 000°34'0 0.0
2020-Sep-26 06:14N 38°11' W 000°34'0 0.0
2020-Sep-26 05:20N 38°11' W 000°34'0 0.0
2020-Sep-26 00:26N 38°11' W 000°34'0 0.0
2020-Sep-25 23:14N 38°11' W 000°34'0 0.0
2020-Sep-25 14:27N 38°11' W 000°34'0 0.1
2020-Sep-25 13:43N 38°11' W 000°34'0 0.0
2020-Sep-25 13:19N 38°11' W 000°34'0 0.0
2020-Sep-25 06:44N 38°11' W 000°34'0 0.0
2020-Sep-25 05:49N 38°11' W 000°34'0 0.0
2020-Sep-25 03:55N 38°11' W 000°34'0 0.0
2020-Sep-25 00:25N 38°11' W 000°34'0 0.0
2020-Sep-24 16:49N 38°11' W 000°34'0 0.0
2020-Sep-24 15:44N 38°11' W 000°34'0 0.0
2020-Sep-24 15:26N 38°11' W 000°34'0 0.0
2020-Sep-24 13:56N 38°11' W 000°34'4 0.7
2020-Sep-24 07:25N 38°11' W 000°29'0 0.0
2020-Sep-24 06:25N 38°11' W 000°29'0 0.0
2020-Sep-24 05:25N 38°10' W 000°29'0 0.0
2020-Sep-24 02:55N 38°11' W 000°29'0 0.0
2020-Sep-24 02:19N 38°10' W 000°29'0 0.0
2020-Sep-24 01:55N 38°11' W 000°29'0 0.0
2020-Sep-23 21:25N 38°11' W 000°29'0 0.0
2020-Sep-23 19:49N 38°11' W 000°29'0 0.0
2020-Sep-23 19:25N 38°11' W 000°29'0 0.0
2020-Sep-23 19:13N 38°11' W 000°29'0 0.0
2020-Sep-23 18:49N 38°11' W 000°29'0 0.0
2020-Sep-23 14:55N 38°11' W 000°29'0 0.0
2020-Sep-23 13:55N 38°11' W 000°29'0 0.0
2020-Sep-23 11:53N 38°11' W 000°29'5 5.2
2020-Sep-23 11:00N 38°07' W 000°26'5 8.8
2020-Sep-23 10:29N 38°02' W 000°27'97 2.7
2020-Sep-21 22:52N 36°52' W 001°51'5 1.9
2020-Sep-21 20:08N 36°49' W 001°56'10 0.3
2020-Sep-20 12:26N 36°43' W 002°07'2 4.1
2020-Sep-20 12:00N 36°42' W 002°08'2 4.7
2020-Sep-20 11:29N 36°41' W 002°11'3 3.3
2020-Sep-20 10:30N 36°39' W 002°14'7 3.4
2020-Sep-20 08:30N 36°37' W 002°22'6 3.7
2020-Sep-20 07:00N 36°35' W 002°29'4 3.9
2020-Sep-20 06:00N 36°34' W 002°33'72 5.6
2020-Sep-19 17:01N 36°37' W 004°03'3 6.5
2020-Sep-19 16:30N 36°38' W 004°07'14 5.5
2020-Sep-19 14:00N 36°40' W 004°24'12 0.2
2020-Sep-17 12:01N 36°31' W 004°33'27 6.7
2020-Sep-17 08:00N 36°16' W 005°00'3 5.6
2020-Sep-17 07:31N 36°15' W 005°03'3 5.8
2020-Sep-17 07:01N 36°13' W 005°06'3 6.3
2020-Sep-17 06:30N 36°11' W 005°10'79 6.5
2020-Sep-16 18:25N 36°10' W 006°47'4 9.3
2020-Sep-16 18:00N 36°12' W 006°52'11 9.2
2020-Sep-16 16:51N 36°16' W 007°04'3 9.0
2020-Sep-16 16:30N 36°17' W 007°08'40 8.8
2020-Sep-16 12:01N 36°30' W 007°54'  
Track history (hours):
 
Tides and Currents Weather Stations Pressure Air Temp Water Temp Dewpoint Dewpoint Depression Visibility Wind Speed Wind Dir Waves Ship Positions

STS Fryderyk Chopin (Poland)

Ship's website: http://www.fryderykchopin.pl/

Last reported at 2020-Sep-26 07:50 UTC. Time now 2020-Sep-26 09:06 UTC.
Position N 38°11' W 000°34'.

Length 44 m; draft 4 m.

Type: Sailing vessel. MMSI: 261000290.

Date/timePositionNaut miles runAvg speedWind from/ knotsBaromVisibWave heightAir tempDewpointWater temp
2020-Sep-26 07:50N 38°11' W 000°34'0 0.0
2020-Sep-26 07:20N 38°11' W 000°34'0 0.0
2020-Sep-26 06:14N 38°11' W 000°34'0 0.0
2020-Sep-26 05:20N 38°11' W 000°34'0 0.0
2020-Sep-26 00:26N 38°11' W 000°34'0 0.0
2020-Sep-25 23:14N 38°11' W 000°34'0 0.0
2020-Sep-25 14:27N 38°11' W 000°34'0 0.1
2020-Sep-25 13:43N 38°11' W 000°34'0 0.0
2020-Sep-25 13:19N 38°11' W 000°34'0 0.0
2020-Sep-25 06:44N 38°11' W 000°34'0 0.0
2020-Sep-25 05:49N 38°11' W 000°34'0 0.0
2020-Sep-25 03:55N 38°11' W 000°34'0 0.0
2020-Sep-25 00:25N 38°11' W 000°34'0 0.0
2020-Sep-24 16:49N 38°11' W 000°34'0 0.0
2020-Sep-24 15:44N 38°11' W 000°34'0 0.0
2020-Sep-24 15:26N 38°11' W 000°34'0 0.0
2020-Sep-24 13:56N 38°11' W 000°34'4 0.7
2020-Sep-24 07:25N 38°11' W 000°29'0 0.0
2020-Sep-24 06:25N 38°11' W 000°29'0 0.0
2020-Sep-24 05:25N 38°10' W 000°29'0 0.0
2020-Sep-24 02:55N 38°11' W 000°29'0 0.0
2020-Sep-24 02:19N 38°10' W 000°29'0 0.0
2020-Sep-24 01:55N 38°11' W 000°29'0 0.0
2020-Sep-23 21:25N 38°11' W 000°29'0 0.0
2020-Sep-23 19:49N 38°11' W 000°29'0 0.0
2020-Sep-23 19:25N 38°11' W 000°29'0 0.0
2020-Sep-23 19:13N 38°11' W 000°29'0 0.0
2020-Sep-23 18:49N 38°11' W 000°29'0 0.0
2020-Sep-23 14:55N 38°11' W 000°29'0 0.0
2020-Sep-23 13:55N 38°11' W 000°29'0 0.0
2020-Sep-23 11:53N 38°11' W 000°29'5 5.2
2020-Sep-23 11:00N 38°07' W 000°26'5 8.8
2020-Sep-23 10:29N 38°02' W 000°27'97 2.7
2020-Sep-21 22:52N 36°52' W 001°51'5 1.9
2020-Sep-21 20:08N 36°49' W 001°56'10 0.3
2020-Sep-20 12:26N 36°43' W 002°07'2 4.1
2020-Sep-20 12:00N 36°42' W 002°08'2 4.7
2020-Sep-20 11:29N 36°41' W 002°11'3 3.3
2020-Sep-20 10:30N 36°39' W 002°14'7 3.4
2020-Sep-20 08:30N 36°37' W 002°22'6 3.7
2020-Sep-20 07:00N 36°35' W 002°29'4 3.9
2020-Sep-20 06:00N 36°34' W 002°33'72 5.6
2020-Sep-19 17:01N 36°37' W 004°03'3 6.5
2020-Sep-19 16:30N 36°38' W 004°07'14 5.5
2020-Sep-19 14:00N 36°40' W 004°24'12 0.2
2020-Sep-17 12:01N 36°31' W 004°33'27 6.7
2020-Sep-17 08:00N 36°16' W 005°00'3 5.6
2020-Sep-17 07:31N 36°15' W 005°03'3 5.8
2020-Sep-17 07:01N 36°13' W 005°06'3 6.3
2020-Sep-17 06:30N 36°11' W 005°10'79 6.5
2020-Sep-16 18:25N 36°10' W 006°47'4 9.3
2020-Sep-16 18:00N 36°12' W 006°52'11 9.2
2020-Sep-16 16:51N 36°16' W 007°04'3 9.0
2020-Sep-16 16:30N 36°17' W 007°08'40 8.8
2020-Sep-16 12:01N 36°30' W 007°54'  

Dump ship's entire track history